Time;durP1;ratioP1;P1;durP2;ratioP2;P2;SDS_P1;SDS_P2;PMS_P1;PMS_P2;Temp;Humidity;BMP_temperature;BMP_pressure;BME280_temperature;BME280_humidity;BME280_pressure;Samples;Min_cycle;Max_cycle;Signal;HPM_P1;HPM_P2
2022/12/22 03:27:19;;;;;;;70.38;32.00;;;;;;;;;;5115864;28;20050;-85
2022/12/22 03:29:45;;;;;;;69.55;32.67;;;;;;;;;;5099691;28;20051;-86
2022/12/22 03:32:11;;;;;;;74.47;32.25;;;;;;;;;;5097111;28;20096;-86
2022/12/22 03:34:37;;;;;;;71.30;32.10;;;;;;;;;;5113560;28;20043;-86
2022/12/22 03:37:04;;;;;;;70.90;31.83;;;;;;;;;;5113451;28;20059;-86
2022/12/22 03:39:30;;;;;;;72.97;32.30;;;;;;;;;;5111469;28;20081;-85
2022/12/22 03:47:25;;;;;;;68.30;30.77;;;;;;;;;;5099474;28;20040;-86
2022/12/22 03:49:51;;;;;;;68.97;31.55;;;;;;;;;;5106870;27;20050;-85
2022/12/22 03:52:17;;;;;;;73.00;32.65;;;;;;;;;;5118585;27;20138;-85
2022/12/22 03:54:43;;;;;;;70.78;30.58;;;;;;;;;;5118244;27;20076;-86
2022/12/22 03:57:09;;;;;;;69.78;30.80;;;;;;;;;;5117790;27;20051;-86
2022/12/22 03:59:35;;;;;;;71.20;32.35;;;;;;;;;;5117904;27;20062;-85
2022/12/22 04:02:01;;;;;;;75.88;33.88;;;;;;;;;;5099445;28;20059;-85
2022/12/22 04:04:27;;;;;;;74.75;33.45;;;;;;;;;;5079575;27;20060;-85
2022/12/22 04:06:54;;;;;;;77.00;33.08;;;;;;;;;;5126380;27;20040;-85
2022/12/22 04:09:21;;;;;;;79.45;32.60;;;;;;;;;;5097908;28;20047;-86
2022/12/22 04:14:32;;;;;;;82.22;33.28;;;;;;;;;;5114678;28;20048;-85
2022/12/22 04:16:58;;;;;;;84.82;34.22;;;;;;;;;;5114405;28;20058;-85
2022/12/22 04:19:24;;;;;;;93.75;35.63;;;;;;;;;;5081091;28;20048;-86
2022/12/22 04:21:50;;;;;;;103.00;35.47;;;;;;;;;;5081982;28;20043;-86
2022/12/22 04:24:16;;;;;;;102.85;36.85;;;;;;;;;;5081106;28;20040;-86
2022/12/22 04:26:42;;;;;;;121.65;37.60;;;;;;;;;;5060824;28;20052;-86
2022/12/22 04:29:09;;;;;;;94.72;36.25;;;;;;;;;;5059653;28;20048;-86
2022/12/22 04:31:35;;;;;;;108.28;37.03;;;;;;;;;;5060485;28;20051;-86
2022/12/22 04:34:01;;;;;;;101.22;34.70;;;;;;;;;;5060521;28;20056;-86
2022/12/22 04:36:27;;;;;;;115.55;37.17;;;;;;;;;;5060320;28;20527;-86
2022/12/22 04:38:53;;;;;;;104.80;36.67;;;;;;;;;;5060381;28;20551;-86
2022/12/22 04:41:19;;;;;;;105.65;35.10;;;;;;;;;;5060363;28;20206;-87
2022/12/22 04:43:45;;;;;;;96.10;35.80;;;;;;;;;;5062787;27;20497;-87
2022/12/22 04:46:11;;;;;;;95.30;34.10;;;;;;;;;;5098531;27;20165;-87
2022/12/22 04:48:37;;;;;;;96.97;33.53;;;;;;;;;;5099788;27;20074;-87
2022/12/22 04:51:03;;;;;;;93.15;33.90;;;;;;;;;;5121093;27;20464;-87
2022/12/22 04:53:30;;;;;;;87.97;34.05;;;;;;;;;;5116901;27;20043;-86
2022/12/22 04:55:58;;;;;;;94.07;33.00;;;;;;;;;;5114187;27;20085;-87
2022/12/22 04:58:24;;;;;;;88.63;33.75;;;;;;;;;;5133669;27;20078;-87
2022/12/22 05:00:50;;;;;;;79.38;30.60;;;;;;;;;;5118076;27;20461;-86
2022/12/22 05:03:16;;;;;;;79.95;30.17;;;;;;;;;;5135012;27;20043;-86
2022/12/22 05:05:42;;;;;;;73.20;28.77;;;;;;;;;;5115504;27;20051;-87
2022/12/22 05:08:08;;;;;;;71.20;30.02;;;;;;;;;;5115592;27;20051;-87
2022/12/22 05:10:34;;;;;;;71.32;29.02;;;;;;;;;;5114921;27;20189;-86
2022/12/22 05:13:00;;;;;;;64.20;28.00;;;;;;;;;;5097185;28;20389;-87
2022/12/22 05:15:28;;;;;;;73.30;29.15;;;;;;;;;;5095637;27;20540;-86
2022/12/22 05:17:54;;;;;;;66.40;28.42;;;;;;;;;;5096397;28;20400;-87
2022/12/22 05:20:21;;;;;;;73.05;28.35;;;;;;;;;;5066916;28;20058;-87
2022/12/22 05:22:47;;;;;;;72.95;27.67;;;;;;;;;;5084227;27;20066;-87
2022/12/22 05:25:17;;;;;;;88.05;29.42;;;;;;;;;;5106403;28;20113;-88
2022/12/22 05:27:43;;;;;;;78.53;29.15;;;;;;;;;;5068694;28;20056;-87
2022/12/22 05:30:10;;;;;;;66.90;27.13;;;;;;;;;;5092670;27;20137;-87
2022/12/22 05:32:36;;;;;;;66.60;27.90;;;;;;;;;;5116552;27;20093;-87
2022/12/22 05:35:02;;;;;;;64.70;26.95;;;;;;;;;;5098798;28;20056;-87
2022/12/22 05:37:28;;;;;;;58.75;25.60;;;;;;;;;;5076952;28;20055;-86
2022/12/22 05:39:55;;;;;;;60.22;24.98;;;;;;;;;;5077988;28;20059;-86
2022/12/22 05:42:36;;;;;;;63.53;25.92;;;;;;;;;;5096240;28;20397;-86
2022/12/22 05:45:16;;;;;;;57.30;24.83;;;;;;;;;;5114795;27;20111;-86
2022/12/22 05:47:43;;;;;;;51.63;22.08;;;;;;;;;;5113560;27;20515;-86
2022/12/22 05:50:09;;;;;;;53.05;22.85;;;;;;;;;;5117453;27;20102;-86
2022/12/22 05:52:36;;;;;;;46.30;20.98;;;;;;;;;;5096493;27;20063;-87
2022/12/22 05:55:02;;;;;;;44.38;19.55;;;;;;;;;;5132932;27;20051;-86
2022/12/22 05:57:28;;;;;;;43.22;19.80;;;;;;;;;;5114688;27;20047;-86
2022/12/22 05:59:54;;;;;;;45.60;19.98;;;;;;;;;;5114548;27;20042;-86
2022/12/22 06:02:20;;;;;;;43.85;19.05;;;;;;;;;;5128482;27;20044;-86
2022/12/22 06:04:46;;;;;;;40.65;18.67;;;;;;;;;;5103939;28;20104;-86
2022/12/22 06:07:12;;;;;;;41.80;18.13;;;;;;;;;;5096688;28;20050;-87
2022/12/22 06:09:39;;;;;;;42.58;20.48;;;;;;;;;;5114400;27;20451;-86
2022/12/22 06:12:05;;;;;;;43.13;20.48;;;;;;;;;;5103676;28;20374;-86
2022/12/22 06:14:31;;;;;;;42.88;18.63;;;;;;;;;;5058281;28;20075;-86
2022/12/22 06:16:57;;;;;;;45.10;20.60;;;;;;;;;;5101651;28;20067;-86
2022/12/22 06:19:23;;;;;;;47.20;21.08;;;;;;;;;;5061227;28;20127;-86
2022/12/22 06:21:50;;;;;;;45.85;20.25;;;;;;;;;;5093769;28;20106;-86
2022/12/22 06:24:16;;;;;;;47.58;21.48;;;;;;;;;;5093161;28;20118;-86
2022/12/22 06:26:42;;;;;;;45.15;20.27;;;;;;;;;;5093276;28;20080;-86
2022/12/22 06:29:08;;;;;;;50.65;22.00;;;;;;;;;;5112487;28;20054;-85
2022/12/22 06:31:34;;;;;;;46.45;21.60;;;;;;;;;;5094538;28;20059;-86
2022/12/22 06:34:00;;;;;;;49.22;20.98;;;;;;;;;;5109699;28;20051;-85
2022/12/22 06:36:26;;;;;;;48.20;21.00;;;;;;;;;;5093600;28;20055;-86
2022/12/22 06:38:52;;;;;;;49.80;22.00;;;;;;;;;;5113206;28;20126;-84
2022/12/22 06:43:07;;;;;;;51.08;22.65;;;;;;;;;;5097154;28;20052;-87
2022/12/22 06:44:04;;;;;;;46.95;22.80;;;;;;;;;;5117173;27;20039;-88
2022/12/22 06:46:30;;;;;;;50.72;22.92;;;;;;;;;;5101724;28;20052;-88
2022/12/22 06:48:56;;;;;;;53.03;23.13;;;;;;;;;;5059744;28;20142;-87
2022/12/22 06:51:22;;;;;;;56.15;22.48;;;;;;;;;;5075654;28;20051;-87
2022/12/22 06:53:48;;;;;;;58.88;24.40;;;;;;;;;;5058654;28;20133;-87
2022/12/22 06:56:14;;;;;;;59.75;24.55;;;;;;;;;;5058584;28;20052;-87
2022/12/22 06:58:40;;;;;;;63.70;26.52;;;;;;;;;;5059155;28;20060;-87
2022/12/22 07:01:06;;;;;;;62.65;23.85;;;;;;;;;;5068272;28;20052;-87
2022/12/22 07:03:32;;;;;;;62.83;25.77;;;;;;;;;;5075751;28;20048;-87
2022/12/22 07:05:58;;;;;;;60.90;24.38;;;;;;;;;;5075493;28;20056;-87
2022/12/22 07:08:24;;;;;;;62.05;24.73;;;;;;;;;;5075386;28;20079;-87
2022/12/22 07:10:56;;;;;;;59.22;23.85;;;;;;;;;;5092386;28;20127;-87
2022/12/22 07:13:22;;;;;;;55.70;22.98;;;;;;;;;;5076988;28;20091;-87
2022/12/22 07:15:49;;;;;;;55.78;22.13;;;;;;;;;;5075565;28;20052;-88
2022/12/22 07:18:15;;;;;;;49.63;21.90;;;;;;;;;;5095928;28;20075;-88
2022/12/22 07:20:41;;;;;;;51.50;21.70;;;;;;;;;;5118355;27;20104;-87
2022/12/22 07:23:07;;;;;;;48.17;20.55;;;;;;;;;;5111802;28;20101;-88
2022/12/22 07:25:34;;;;;;;49.80;20.30;;;;;;;;;;5061721;28;20098;-88
2022/12/22 07:28:00;;;;;;;50.38;20.98;;;;;;;;;;5062183;28;20040;-87
2022/12/22 07:30:26;;;;;;;46.75;19.85;;;;;;;;;;5079323;27;20073;-87
2022/12/22 07:32:52;;;;;;;43.70;20.45;;;;;;;;;;5104941;28;20085;-87
2022/12/22 07:35:18;;;;;;;50.85;20.38;;;;;;;;;;5065495;28;20105;-87
2022/12/22 07:37:44;;;;;;;42.50;18.98;;;;;;;;;;5114519;28;20044;-88
2022/12/22 07:40:10;;;;;;;40.72;18.73;;;;;;;;;;5133571;27;20446;-88
2022/12/22 07:42:45;;;;;;;38.80;18.42;;;;;;;;;;5133392;27;20097;-88
2022/12/22 07:45:12;;;;;;;38.15;18.23;;;;;;;;;;5115947;28;20360;-88
2022/12/22 07:47:38;;;;;;;38.20;17.88;;;;;;;;;;5133062;27;20097;-87
2022/12/22 07:52:57;;;;;;;48.30;20.33;;;;;;;;;;5116107;28;20100;-87
2022/12/22 07:55:24;;;;;;;42.78;19.08;;;;;;;;;;5133227;27;20415;-88
2022/12/22 07:57:50;;;;;;;40.65;16.95;;;;;;;;;;5116432;28;20050;-88
2022/12/22 08:00:16;;;;;;;38.22;17.15;;;;;;;;;;5116066;28;20361;-87
2022/12/22 08:02:44;;;;;;;41.50;17.20;;;;;;;;;;5100766;28;20083;-86
2022/12/22 08:05:10;;;;;;;38.55;16.52;;;;;;;;;;5061311;28;20408;-87
2022/12/22 08:07:36;;;;;;;37.50;15.07;;;;;;;;;;5092783;28;20044;-87
2022/12/22 08:10:03;;;;;;;35.10;15.63;;;;;;;;;;5078067;28;20059;-88
2022/12/22 08:12:31;;;;;;;34.70;14.48;;;;;;;;;;5077429;28;20083;-87
2022/12/22 08:14:58;;;;;;;37.33;16.17;;;;;;;;;;5059376;28;20087;-87
2022/12/22 08:17:27;;;;;;;36.75;14.30;;;;;;;;;;5075317;28;20488;-87
2022/12/22 08:19:56;;;;;;;36.17;16.70;;;;;;;;;;5081313;28;20055;-87
2022/12/22 08:22:23;;;;;;;38.30;15.88;;;;;;;;;;5099154;28;20050;-88
2022/12/22 08:24:52;;;;;;;49.28;17.42;;;;;;;;;;5081199;28;20139;-87
2022/12/22 08:27:22;;;;;;;45.70;17.77;;;;;;;;;;5116160;28;20055;-88
2022/12/22 08:29:51;;;;;;;54.08;20.02;;;;;;;;;;5079933;28;20093;-86
2022/12/22 08:32:18;;;;;;;51.25;22.60;;;;;;;;;;5126667;27;20091;-88
2022/12/22 08:34:44;;;;;;;69.03;24.75;;;;;;;;;;5115654;27;20051;-89
2022/12/22 08:37:12;;;;;;;98.30;25.15;;;;;;;;;;5103675;27;20115;-85
2022/12/22 08:39:40;;;;;;;51.03;24.50;;;;;;;;;;5119023;27;20445;-84
2022/12/22 08:42:07;;;;;;;61.20;24.65;;;;;;;;;;5095045;28;20052;-85
2022/12/22 08:44:33;;;;;;;50.65;24.45;;;;;;;;;;5096821;28;20076;-84
2022/12/22 08:46:59;;;;;;;54.13;23.42;;;;;;;;;;5114709;28;20047;-86
2022/12/22 08:49:26;;;;;;;56.15;20.85;;;;;;;;;;5115585;28;20048;-85
2022/12/22 08:51:52;;;;;;;52.10;16.83;;;;;;;;;;5115255;28;20043;-85
2022/12/22 08:54:18;;;;;;;36.80;15.65;;;;;;;;;;5096328;28;20052;-86
2022/12/22 08:56:45;;;;;;;35.55;16.08;;;;;;;;;;5113340;28;20066;-85
2022/12/22 08:59:11;;;;;;;36.88;15.50;;;;;;;;;;5114573;28;20488;-82
2022/12/22 09:01:41;;;;;;;32.80;13.18;;;;;;;;;;5117370;27;20138;-89
2022/12/22 09:04:07;;;;;;;44.80;14.30;;;;;;;;;;5098769;28;20074;-89
2022/12/22 09:06:33;;;;;;;38.90;14.07;;;;;;;;;;5094233;28;20384;-89
2022/12/22 09:09:01;;;;;;;40.22;13.23;;;;;;;;;;5116486;27;20050;-88
2022/12/22 09:11:29;;;;;;;33.40;12.48;;;;;;;;;;5135007;27;20077;-88
2022/12/22 09:13:56;;;;;;;58.60;12.98;;;;;;;;;;5118457;27;20044;-88
2022/12/22 09:16:24;;;;;;;34.28;11.30;;;;;;;;;;5118102;27;20099;-89
2022/12/22 09:18:50;;;;;;;26.98;12.23;;;;;;;;;;5102190;28;20142;-88
2022/12/22 09:21:16;;;;;;;27.50;11.98;;;;;;;;;;5097149;28;20128;-89
2022/12/22 09:23:43;;;;;;;24.70;10.43;;;;;;;;;;5080476;28;20058;-88
2022/12/22 09:26:10;;;;;;;27.33;11.70;;;;;;;;;;5080742;28;20051;-89
2022/12/22 09:28:37;;;;;;;22.95;10.00;;;;;;;;;;5080893;28;20044;-88
2022/12/22 09:31:03;;;;;;;31.80;12.88;;;;;;;;;;5081152;28;20145;-88
2022/12/22 09:33:29;;;;;;;22.40;10.77;;;;;;;;;;5080906;28;20043;-88
2022/12/22 09:35:55;;;;;;;28.52;11.32;;;;;;;;;;5078622;28;20047;-88
2022/12/22 09:38:22;;;;;;;24.75;10.82;;;;;;;;;;5079443;28;20054;-88
2022/12/22 09:40:48;;;;;;;18.70;10.00;;;;;;;;;;5080521;28;20059;-88
2022/12/22 09:43:16;;;;;;;21.65;10.10;;;;;;;;;;5079612;28;20051;-89
2022/12/22 09:45:43;;;;;;;19.25;9.15;;;;;;;;;;5080192;28;20465;-89
2022/12/22 09:48:13;;;;;;;20.17;9.23;;;;;;;;;;5096525;28;20063;-89
2022/12/22 09:50:40;;;;;;;19.77;9.52;;;;;;;;;;5079184;28;20047;-88
2022/12/22 09:53:06;;;;;;;17.77;8.98;;;;;;;;;;5079387;28;20047;-88
2022/12/22 09:55:35;;;;;;;23.27;10.38;;;;;;;;;;5097050;28;20059;-89
2022/12/22 09:58:02;;;;;;;17.67;10.02;;;;;;;;;;5097174;28;20052;-89
2022/12/22 10:00:28;;;;;;;16.13;9.32;;;;;;;;;;5096319;28;20522;-88
2022/12/22 10:02:54;;;;;;;17.42;8.85;;;;;;;;;;5097843;28;20049;-89
2022/12/22 10:05:29;;;;;;;17.40;9.43;;;;;;;;;;5114013;28;20056;-79
2022/12/22 10:08:00;;;;;;;19.70;9.40;;;;;;;;;;5096792;27;20393;-89
2022/12/22 10:10:27;;;;;;;16.55;8.32;;;;;;;;;;5114003;28;20048;-88
2022/12/22 10:12:54;;;;;;;19.52;8.57;;;;;;;;;;5097608;28;20039;-88
2022/12/22 10:15:21;;;;;;;16.27;8.40;;;;;;;;;;5097952;28;20051;-89
2022/12/22 10:17:49;;;;;;;17.17;8.55;;;;;;;;;;5093119;27;20047;-89
2022/12/22 10:20:24;;;;;;;18.05;8.88;;;;;;;;;;5101104;28;20456;-80
2022/12/22 10:22:57;;;;;;;17.90;8.10;;;;;;;;;;5104398;28;20051;-80
2022/12/22 10:25:40;;;;;;;18.45;8.07;;;;;;;;;;5105016;28;20077;-79
2022/12/22 10:28:07;;;;;;;17.10;8.13;;;;;;;;;;5112712;28;20051;-80
2022/12/22 10:30:35;;;;;;;14.63;7.30;;;;;;;;;;5111287;28;20047;-83
2022/12/22 10:33:04;;;;;;;15.65;7.63;;;;;;;;;;5113116;28;20056;-87
2022/12/22 10:35:49;;;;;;;15.90;7.88;;;;;;;;;;5104252;28;20044;-88
2022/12/22 10:38:18;;;;;;;16.05;7.90;;;;;;;;;;5116078;27;20046;-88
2022/12/22 10:40:45;;;;;;;15.95;6.50;;;;;;;;;;5115783;28;20106;-88
2022/12/22 10:43:18;;;;;;;16.75;7.63;;;;;;;;;;5117726;27;20051;-87
2022/12/22 10:45:47;;;;;;;14.80;7.78;;;;;;;;;;5134997;27;20107;-89
2022/12/22 10:48:13;;;;;;;17.92;7.38;;;;;;;;;;5133439;27;20066;-89
2022/12/22 10:50:48;;;;;;;12.52;7.18;;;;;;;;;;5116316;28;20062;-88
2022/12/22 10:53:14;;;;;;;15.75;7.78;;;;;;;;;;5131907;27;20151;-88
2022/12/22 10:55:40;;;;;;;15.77;7.95;;;;;;;;;;5133848;28;20050;-89
2022/12/22 10:58:09;;;;;;;14.63;7.70;;;;;;;;;;5133850;28;20124;-89
2022/12/22 11:00:37;;;;;;;14.18;8.00;;;;;;;;;;5116891;28;20066;-88
2022/12/22 11:03:03;;;;;;;17.23;7.53;;;;;;;;;;5116158;28;20039;-89
2022/12/22 11:05:31;;;;;;;12.70;7.20;;;;;;;;;;5116872;28;20453;-88
2022/12/22 11:07:59;;;;;;;14.90;7.65;;;;;;;;;;5117001;28;20051;-89
2022/12/22 11:10:55;;;;;;;13.82;6.50;;;;;;;;;;5115837;28;20047;-89
2022/12/22 11:13:39;;;;;;;16.45;6.88;;;;;;;;;;5028082;28;20046;-88
2022/12/22 11:16:14;;;;;;;12.63;6.78;;;;;;;;;;5116252;28;20126;-89
2022/12/22 11:18:46;;;;;;;11.60;6.10;;;;;;;;;;5087898;28;20059;-88
2022/12/22 11:21:19;;;;;;;11.13;5.32;;;;;;;;;;5076866;28;20426;-89
2022/12/22 11:24:04;;;;;;;12.55;5.65;;;;;;;;;;5103503;28;20054;-90
2022/12/22 11:26:48;;;;;;;10.10;5.30;;;;;;;;;;5131789;28;20051;-86
2022/12/22 11:29:14;;;;;;;10.38;4.75;;;;;;;;;;5133201;28;20052;-90
2022/12/22 11:31:59;;;;;;;9.48;4.55;;;14.40;99.90;;;;;;5132406;28;20043;-88
2022/12/22 11:34:45;;;;;;;9.63;4.40;;;20.90;99.90;;;;;;5135000;28;20227;-89
2022/12/22 11:37:25;;;;;;;8.88;3.67;;;20.80;99.90;;;;;;5060028;28;20105;-90
2022/12/22 11:39:55;;;;;;;9.65;3.78;;;20.30;99.90;;;;;;5135701;28;20106;-90
2022/12/22 11:42:39;;;;;;;9.20;3.75;;;19.70;99.90;;;;;;5099720;28;20395;-90
2022/12/22 11:45:22;;;;;;;9.27;3.88;;;19.40;99.90;;;;;;5117710;28;20082;-89
2022/12/22 11:48:22;;;;;;;8.35;3.80;;;20.20;99.90;;;;;;5097900;28;20130;-90
2022/12/22 11:50:55;;;;;;;7.45;3.42;;;21.20;99.90;;;;;;5102636;28;20051;-90
2022/12/22 11:53:27;;;;;;;10.40;3.60;;;21.80;99.60;;;;;;5092986;28;20051;-90
2022/12/22 11:56:14;;;;;;;9.73;4.38;;;22.10;97.50;;;;;;5110887;28;20194;-90
2022/12/22 11:59:10;;;;;;;9.23;3.63;;;22.90;97.40;;;;;;5132442;28;20049;-90
2022/12/22 12:01:57;;;;;;;8.48;3.63;;;23.80;95.80;;;;;;5117325;28;20070;-89
2022/12/22 12:04:36;;;;;;;7.40;3.40;;;24.00;95.00;;;;;;5115190;27;20055;-90
2022/12/22 12:07:23;;;;;;;11.73;3.90;;;24.10;93.10;;;;;;5136588;27;20043;-90
2022/12/22 12:10:19;;;;;;;8.65;3.70;;;23.90;93.40;;;;;;5119768;27;20422;-90
2022/12/22 12:13:11;;;;;;;8.63;3.45;;;23.40;93.00;;;;;;5102037;27;20131;-92
2022/12/22 12:16:02;;;;;;;13.32;3.63;;;23.70;93.30;;;;;;5099108;27;20047;-90
2022/12/22 12:18:43;;;;;;;8.85;3.40;;;23.90;92.40;;;;;;5041607;28;20048;-90
2022/12/22 12:21:25;;;;;;;9.57;3.08;;;24.00;92.70;;;;;;5082265;28;20126;-90
2022/12/22 12:24:12;;;;;;;9.75;2.85;;;24.30;92.00;;;;;;5083455;28;20062;-90
2022/12/22 12:26:51;;;;;;;8.95;2.92;;;24.20;92.70;;;;;;5099327;28;20416;-91
2022/12/22 12:29:27;;;;;;;11.90;2.95;;;23.60;91.40;;;;;;5099831;28;20059;-89
2022/12/22 12:32:14;;;;;;;7.85;2.95;;;23.00;92.20;;;;;;5077759;28;20377;-90
2022/12/22 12:34:44;;;;;;;8.95;3.20;;;22.10;93.20;;;;;;5077693;28;20063;-88
2022/12/22 12:37:20;;;;;;;11.40;3.10;;;21.10;94.30;;;;;;5079490;28;20145;-89
2022/12/22 12:40:13;;;;;;;11.48;3.45;;;;;;;;;;5081141;28;20504;-90
2022/12/22 12:42:41;;;;;;;12.05;3.08;;;;;;;;;;5092309;28;20059;-88
2022/12/22 12:45:26;;;;;;;9.85;2.83;;;;;;;;;;5091192;28;20057;-89
2022/12/22 12:47:52;;;;;;;11.38;3.47;;;;;;;;;;5057945;28;20114;-90
2022/12/22 12:50:33;;;;;;;14.18;3.30;;;;;;;;;;5063349;28;20055;-90
2022/12/22 12:53:06;;;;;;;10.85;3.45;;;;;;;;;;5114737;28;20492;-89
2022/12/22 12:55:34;;;;;;;14.18;3.20;;;;;;;;;;5114005;28;20058;-90
2022/12/22 12:58:02;;;;;;;9.40;3.00;;;;;;;;;;5134706;27;20051;-90
2022/12/22 13:00:34;;;;;;;11.23;3.22;;;;;;;;;;5114551;28;20413;-87
2022/12/22 13:03:01;;;;;;;12.15;2.70;;;;;;;;;;5131282;27;20130;-87
2022/12/22 13:05:32;;;;;;;12.63;2.95;;;;;;;;;;5113623;28;20060;-87
2022/12/22 13:08:04;;;;;;;11.75;3.10;;;;;;;;;;5129422;27;20523;-87
2022/12/22 13:10:31;;;;;;;12.40;3.33;;;;;;;;;;5112311;28;20116;-87
2022/12/22 13:12:57;;;;;;;11.13;2.97;;;;;;;;;;5113554;28;20056;-87
2022/12/22 13:15:31;;;;;;;11.73;3.35;;;;;;;;;;5115670;28;20055;-87
2022/12/22 13:17:58;;;;;;;12.27;3.10;;;;;;;;;;5101276;28;20122;-87
2022/12/22 13:20:26;;;;;;;12.45;3.40;;;;;;;;;;5092322;28;20056;-87
2022/12/22 13:22:53;;;;;;;11.85;3.25;;;;;;;;;;5092599;28;20499;-87
2022/12/22 13:25:20;;;;;;;13.77;3.53;;;;;;;;;;5109947;28;20079;-86
2022/12/22 13:27:47;;;;;;;10.13;3.10;;;;;;;;;;5092660;28;20051;-87
2022/12/22 13:30:15;;;;;;;15.30;3.63;;;;;;;;;;5090923;28;20060;-86
2022/12/22 13:32:42;;;;;;;13.05;3.15;;;;;;;;;;5094526;28;20048;-86
2022/12/22 13:35:15;;;;;;;11.13;3.30;;;;;;;;;;5092758;28;20075;-87
2022/12/22 13:37:44;;;;;;;10.10;3.00;;;;;;;;;;5091290;28;20048;-87
2022/12/22 13:40:14;;;;;;;12.85;3.35;;;;;;;;;;5089448;28;20441;-87
2022/12/22 13:42:54;;;;;;;10.45;2.97;;;;;;;;;;5091295;28;20048;-86
2022/12/22 13:45:20;;;;;;;13.65;3.38;;;;;;;;;;5090900;28;20048;-87
2022/12/22 13:47:47;;;;;;;14.25;3.40;;;;;;;;;;5093624;28;20448;-87
2022/12/22 13:50:21;;;;;;;16.98;3.58;;;;;;;;;;5092266;28;20052;-87
2022/12/22 13:52:48;;;;;;;17.05;3.90;;;;;;;;;;5108452;28;20144;-87
2022/12/22 13:55:20;;;;;;;11.10;3.10;;;;;;;;;;5091157;28;20052;-87
2022/12/22 13:57:46;;;;;;;17.23;3.55;;;;;;;;;;5092384;28;20378;-87
2022/12/22 14:00:17;;;;;;;12.95;4.00;;;;;;;;;;5091583;28;20044;-87
2022/12/22 14:02:44;;;;;;;14.68;3.85;;;;;;;;;;5092755;28;20040;-87
2022/12/22 14:05:11;;;;;;;16.33;3.85;;;;;;;;;;5092305;28;20070;-87
2022/12/22 14:07:37;;;;;;;14.90;4.20;;;;;;;;;;5092044;28;20044;-86
2022/12/22 14:10:04;;;;;;;11.98;3.30;;;;;;;;;;5091628;28;20051;-86
2022/12/22 14:12:41;;;;;;;15.45;3.67;;;;;;;;;;5091962;28;20636;-86
2022/12/22 14:15:11;;;;;;;13.15;4.38;;;;;;;;;;5092410;28;20124;-87
2022/12/22 14:17:39;;;;;;;12.68;3.90;;;;;;;;;;5091218;28;20044;-87
2022/12/22 14:20:26;;;;;;;10.95;3.58;;;;;;;;;;5091083;28;20561;-86
2022/12/22 14:23:01;;;;;;;14.80;3.90;;;;;;;;;;5087401;28;20040;-87
2022/12/22 14:25:32;;;;;;;9.82;3.30;;;;;;;;;;5071743;28;20374;-86
2022/12/22 14:27:58;;;;;;;11.50;3.38;;;;;;;;;;5071568;28;20060;-86
2022/12/22 14:30:31;;;;;;;10.80;3.20;;;;;;;;;;5055211;28;20053;-86
2022/12/22 14:33:13;;;;;;;9.52;3.25;;;;;;;;;;5071623;28;20059;-87
2022/12/22 14:35:39;;;;;;;10.63;3.20;;;;;;;;;;5054705;28;20045;-87
2022/12/22 14:38:21;;;;;;;15.60;3.78;;;;;;;;;;5071313;28;20052;-87
2022/12/22 14:40:47;;;;;;;11.82;3.15;;;;;;;;;;5071263;28;20472;-87
2022/12/22 14:43:19;;;;;;;12.30;3.10;;;;;;;;;;5053095;28;20054;-87
2022/12/22 14:45:46;;;;;;;12.05;3.05;;;;;;;;;;5052600;28;20063;-87
2022/12/22 14:48:30;;;;;;;9.38;2.45;;;;;;;;;;5054878;28;20114;-87
2022/12/22 14:50:56;;;;;;;13.82;3.28;;;;;;;;;;5055036;28;20053;-87
2022/12/22 14:53:24;;;;;;;15.05;3.28;;;;;;;;;;5071487;28;20567;-86
2022/12/22 14:55:51;;;;;;;12.23;2.80;;;;;;;;;;5071056;28;20067;-87
2022/12/22 14:58:19;;;;;;;8.35;2.78;;;;;;;;;;5053957;28;20051;-87
2022/12/22 15:01:08;;;;;;;13.32;2.65;;;;;;;;;;5053038;28;20125;-87
2022/12/22 15:03:36;;;;;;;11.65;2.75;;;;;;;;;;5054728;28;20070;-87
2022/12/22 15:06:20;;;;;;;8.18;2.70;;;;;;;;;;5054009;28;20052;-87
2022/12/22 15:08:47;;;;;;;8.75;2.35;;;;;;;;;;5071379;28;20140;-87
2022/12/22 15:11:15;;;;;;;8.77;2.58;;;;;;;;;;5071975;28;20052;-87
2022/12/22 15:13:42;;;;;;;12.65;2.60;;;;;;;;;;5071542;28;20048;-87
2022/12/22 15:16:28;;;;;;;9.98;2.60;;;;;;;;;;5069884;28;20036;-87
2022/12/22 15:18:54;;;;;;;;;;;;;;;;;;5070595;28;20044;-87
2022/12/22 15:21:21;;;;;;;8.77;2.58;;;;;;;;;;5091215;28;19927;-87
2022/12/22 15:23:47;;;;;;;13.75;2.78;;;20.60;94.90;;;;;;5092574;28;20527;-87
2022/12/22 15:26:14;;;;;;;13.27;3.00;;;;;;;;;;5074952;28;20124;-87
2022/12/22 15:28:40;;;;;;;11.85;3.03;;;9.90;99.90;;;;;;5090874;28;20048;-86
2022/12/22 15:31:16;;;;;;;11.90;3.35;;;9.50;99.90;;;;;;5074366;28;20079;-88
2022/12/22 15:33:43;;;;;;;14.63;3.33;;;9.50;99.90;;;;;;5073744;28;20055;-86
2022/12/22 15:36:11;;;;;;;8.30;2.72;;;9.50;99.90;;;;;;5073906;28;20144;-88
2022/12/22 15:38:37;;;;;;;9.75;2.88;;;;;;;;;;5074382;28;20052;-87
2022/12/22 15:41:04;;;;;;;15.77;3.53;;;9.40;99.90;;;;;;5077040;28;20068;-88
2022/12/22 15:43:30;;;;;;;10.98;3.60;;;9.40;99.90;;;;;;5078362;28;20044;-86
2022/12/22 15:45:56;;;;;;;9.02;3.15;;;8.80;99.90;;;;;;5107648;28;20425;-88
2022/12/22 15:48:29;;;;;;;12.27;3.75;;;8.70;99.90;;;;;;5106227;28;20125;-87
2022/12/22 15:50:56;;;;;;;9.35;3.20;;;9.30;99.90;;;;;;5078867;28;20048;-88
2022/12/22 15:53:22;;;;;;;9.30;3.63;;;9.30;99.90;;;;;;5094884;28;20090;-86
2022/12/22 15:55:52;;;;;;;7.05;3.58;;;9.40;99.90;;;;;;5077705;28;20052;-90
2022/12/22 15:58:20;;;;;;;11.00;4.25;;;9.40;99.90;;;;;;5095626;28;20052;-86
2022/12/22 16:00:46;;;;;;;9.73;3.95;;;9.40;99.90;;;;;;5077955;28;20140;-86
2022/12/22 16:03:12;;;;;;;10.73;4.18;;;9.30;99.90;;;;;;5079116;28;20087;-86
2022/12/22 16:05:39;;;;;;;11.18;4.18;;;9.20;99.90;;;;;;5094462;28;20105;-87
2022/12/22 16:08:14;;;;;;;8.73;4.10;;;9.60;99.90;;;;;;5077851;28;20052;-82
2022/12/22 16:10:40;;;;;;;11.70;4.13;;;9.20;99.90;;;;;;5093184;28;20059;-83
2022/12/22 16:13:11;;;;;;;12.15;4.45;;;9.10;99.90;;;;;;5094491;28;20059;-82
2022/12/22 16:15:37;;;;;;;10.25;4.10;;;9.10;99.90;;;;;;5093932;28;20084;-82
2022/12/22 16:18:03;;;;;;;10.40;4.18;;;9.10;99.90;;;;;;5085512;28;20060;-82
2022/12/22 16:20:35;;;;;;;10.48;4.10;;;9.00;99.90;;;;;;5062378;28;20047;-81
2022/12/22 16:23:02;;;;;;;13.93;4.03;;;9.00;99.90;;;;;;5102579;28;20062;-83
2022/12/22 16:25:35;;;;;;;11.27;4.28;;;9.00;99.90;;;;;;5093715;28;20083;-83
2022/12/22 16:28:02;;;;;;;9.85;4.10;;;9.00;99.90;;;;;;5094776;28;20070;-82
2022/12/22 16:30:30;;;;;;;12.85;4.35;;;9.00;99.90;;;;;;5103808;27;20448;-82
2022/12/22 16:32:56;;;;;;;7.63;4.30;;;9.00;99.90;;;;;;5115905;27;20095;-83
2022/12/22 16:35:27;;;;;;;8.30;4.15;;;8.90;99.90;;;;;;5135432;27;20110;-81
2022/12/22 16:37:58;;;;;;;10.85;4.25;;;8.90;99.90;;;;;;5100339;27;20484;-84
2022/12/22 16:40:25;;;;;;;11.55;4.85;;;9.90;99.90;;;;;;5100946;27;20062;-85
2022/12/22 16:43:02;;;;;;;11.27;4.68;;;8.90;99.90;;;;;;5100883;27;20479;-85
2022/12/22 16:45:30;;;;;;;12.32;5.28;;;8.90;99.90;;;;;;5093324;28;20070;-82
2022/12/22 16:48:03;;;;;;;10.98;5.35;;;8.90;99.90;;;;;;5100318;28;20051;-83
2022/12/22 16:50:32;;;;;;;15.25;6.53;;;8.90;99.90;;;;;;5096263;27;20043;-82
2022/12/22 16:52:59;;;;;;;12.85;6.47;;;8.90;99.90;;;;;;5117218;27;20047;-83
2022/12/22 16:55:26;;;;;;;9.27;6.53;;;8.90;99.90;;;;;;5096309;28;20485;-83
2022/12/22 16:57:52;;;;;;;14.63;7.50;;;8.80;99.90;;;;;;5118851;27;20048;-83
2022/12/22 17:00:26;;;;;;;12.90;7.72;;;8.80;99.90;;;;;;5096212;28;20056;-84
2022/12/22 17:03:03;;;;;;;14.95;9.30;;;8.80;99.90;;;;;;5096349;28;20134;-83
2022/12/22 17:05:38;;;;;;;15.10;10.15;;;8.80;99.90;;;;;;5106056;27;20051;-82
2022/12/22 17:08:05;;;;;;;17.30;11.05;;;8.80;99.90;;;;;;5101790;28;20142;-84
2022/12/22 17:10:32;;;;;;;19.15;11.48;;;8.80;99.90;;;;;;5102703;28;20104;-83
2022/12/22 17:13:00;;;;;;;16.88;12.52;;;8.80;99.90;;;;;;5106184;27;20483;-85
2022/12/22 17:15:25;;;;;;;18.25;12.93;;;8.70;99.90;;;;;;5101476;28;20066;-90
2022/12/22 17:17:51;;;;;;;22.50;14.20;;;8.70;99.90;;;;;;5094601;28;20491;-89
2022/12/22 17:20:20;;;;;;;19.95;14.82;;;8.70;99.90;;;;;;5087729;28;20059;-88
2022/12/22 17:22:56;;;;;;;24.50;15.32;;;8.60;99.90;;;;;;5092816;28;20048;-88
2022/12/22 17:25:29;;;;;;;18.88;14.52;;;8.50;99.90;;;;;;5089826;28;20048;-89
2022/12/22 17:27:57;;;;;;;24.40;15.95;;;8.70;99.90;;;;;;5056323;28;20048;-84
2022/12/22 17:30:25;;;;;;;24.17;16.40;;;8.50;99.90;;;;;;5069654;28;20056;-85
2022/12/22 17:32:52;;;;;;;26.30;16.98;;;8.50;99.90;;;;;;5053296;28;20052;-85
2022/12/22 17:35:20;;;;;;;25.45;19.63;;;8.50;99.90;;;;;;5070758;28;20135;-87
2022/12/22 17:37:47;;;;;;;27.45;17.20;;;8.50;99.90;;;;;;5070676;28;20052;-85
2022/12/22 17:40:21;;;;;;;29.92;17.38;;;8.70;99.90;;;;;;5074637;28;20057;-86
2022/12/22 17:42:47;;;;;;;29.58;18.45;;;8.50;99.90;;;;;;5069701;28;20045;-86
2022/12/22 17:45:16;;;;;;;31.52;19.40;;;8.50;99.90;;;;;;5069793;28;20052;-84
2022/12/22 17:47:42;;;;;;;35.55;20.15;;;8.50;99.90;;;;;;5053885;28;20135;-84